Artie, West Virginia
Current Conditions -  °F | °C
As of 4:28 AM on Thursday 27 Nov 2014 (Local Time) from KBKW Reporting Station
Light Snow Light Snow  
Wind Chill: 33°   Ceiling: 600
Heat Index: 33°   Visibility: 1.7mi
Dew Point: 31°   Wind: 0mph
Humidity: 92%   Direction: NA
Pressure: 29.93"   Gusts: NA
Location:  37.93°N, 81.36°W
Report Text: KBKW 270928Z AUTO 00000KT 1 3/4SM -SN BR SCT002 BKN006 OVC017 01/M01 A2993 RMK AO2 SNE16B27 P0000 T00061006
Loading
Personal Weather Stations






























Interactive Weather Map New forecast layout! Learn more

10-Day Weather Forecast

Advertisements
Track Severe Weather on mobile